Time;durP1;ratioP1;P1;durP2;ratioP2;P2;SDS_P1;SDS_P2;PMS_P1;PMS_P2;Temp;Humidity;BMP_temperature;BMP_pressure;BME280_temperature;BME280_humidity;BME280_pressure;Samples;Min_cycle;Max_cycle;Signal;HPM_P1;HPM_P2
2022/12/30 00:00:07;;;;;;;6.87;3.70;;;;;;;2.07;100.00;101176.14;1840499;78;21038;-75
2022/12/30 00:02:37;;;;;;;5.63;3.50;;;;;;;2.09;100.00;101175.13;1834939;77;21046;-75
2022/12/30 00:05:07;;;;;;;8.30;3.80;;;;;;;2.09;100.00;101182.28;1825341;78;21475;-76
2022/12/30 00:07:36;;;;;;;6.73;4.00;;;;;;;2.09;100.00;101175.13;1820238;77;21041;-72
2022/12/30 00:10:43;;;;;;;5.47;3.17;;;;;;;2.11;100.00;101175.05;1850959;77;21107;-75
2022/12/30 00:33:45;;;;;;;8.33;3.47;;;;;;;2.13;100.00;101162.95;1831510;78;21805;-74
2022/12/30 00:36:12;;;;;;;8.87;3.30;;;;;;;2.14;100.00;101163.31;1830447;77;21483;-74
2022/12/30 00:38:39;;;;;;;7.50;3.20;;;;;;;2.14;100.00;101165.98;1834575;77;21011;-74
2022/12/30 00:43:51;;;;;;;7.37;3.47;;;;;;;2.12;100.00;101160.73;1832334;77;21027;-73
2022/12/30 00:46:23;;;;;;;6.10;3.37;;;;;;;2.13;100.00;101160.28;1835022;78;21021;-75
2022/12/30 00:57:10;;;;;;;6.00;3.07;;;;;;;2.17;100.00;101137.31;1831328;78;21018;-75
2022/12/30 00:59:37;;;;;;;7.17;3.37;;;;;;;2.19;100.00;101142.08;1835949;77;21034;-75
2022/12/30 01:02:03;;;;;;;7.80;3.10;;;;;;;2.19;100.00;101133.22;1839118;78;21017;-74
2022/12/30 01:04:30;;;;;;;7.47;3.60;;;;;;;2.20;100.00;101133.62;1799588;78;21011;-76
2022/12/30 01:06:57;;;;;;;6.73;3.40;;;;;;;2.20;100.00;101138.95;1824027;78;20997;-75
2022/12/30 01:09:25;;;;;;;4.23;3.37;;;;;;;2.19;100.00;101143.89;1837577;77;20995;-74
2022/12/30 01:12:09;;;;;;;8.53;3.90;;;;;;;2.17;100.00;101141.31;1836707;77;21010;-74
2022/12/30 01:14:45;;;;;;;4.67;3.10;;;;;;;2.19;100.00;101142.08;1832324;78;21033;-75
2022/12/30 01:17:29;;;;;;;7.23;3.40;;;;;;;2.21;100.00;101141.99;1831582;77;21000;-76
2022/12/30 01:19:56;;;;;;;4.43;2.97;;;;;;;2.21;100.00;101140.20;1828028;77;21009;-75
2022/12/30 01:22:33;;;;;;;3.80;3.23;;;;;;;2.23;100.00;101139.63;1840538;77;21035;-74
2022/12/30 01:25:00;;;;;;;7.57;3.57;;;;;;;2.26;100.00;101132.75;1838583;77;20982;-75
2022/12/30 01:27:27;;;;;;;7.53;3.33;;;;;;;2.27;100.00;101134.97;1834612;77;21089;-75
2022/12/30 01:29:55;;;;;;;6.43;3.57;;;;;;;2.27;100.00;101136.31;1832161;77;21053;-74
2022/12/30 01:32:22;;;;;;;8.60;3.50;;;;;;;2.25;100.00;101126.20;1835415;77;21115;-75
2022/12/30 01:34:54;;;;;;;9.73;3.53;;;;;;;2.24;100.00;101131.14;1839619;77;20988;-75
2022/12/30 01:37:22;;;;;;;6.35;3.00;;;;;;;2.22;100.00;101119.70;1833989;77;21015;-75
2022/12/30 01:39:48;;;;;;;6.43;3.50;;;;;;;2.19;100.00;101122.06;1836450;77;21483;-75
2022/12/30 01:42:25;;;;;;;5.90;2.93;;;;;;;2.21;100.00;101120.64;1841876;77;20930;-74
2022/12/30 01:45:22;;;;;;;5.40;3.30;;;;;;;2.21;100.00;101113.97;1836389;77;21007;-76
2022/12/30 01:48:00;;;;;;;6.30;3.27;;;;;;;2.22;100.00;101115.22;1830401;78;20965;-75
2022/12/30 01:50:44;;;;;;;11.83;4.23;;;;;;;2.20;100.00;101109.12;1832887;78;21057;-74
2022/12/30 01:53:16;;;;;;;7.97;3.40;;;;;;;2.22;100.00;101105.88;1828075;77;21014;-76
2022/12/30 01:56:04;;;;;;;7.27;3.77;;;;;;;2.25;100.00;101110.19;1837160;78;21101;-74
2022/12/30 01:58:40;;;;;;;6.40;3.77;;;;;;;2.24;100.00;101110.64;1837829;78;21057;-74
2022/12/30 02:01:07;;;;;;;6.43;3.70;;;;;;;2.26;100.00;101104.73;1827160;78;21737;-74
2022/12/30 02:03:37;;;;;;;6.77;3.90;;;;;;;2.29;100.00;101103.70;1833581;77;20995;-73
2022/12/30 02:06:05;;;;;;;8.63;4.17;;;;;;;2.31;100.00;101106.30;1831589;77;21464;-74
2022/12/30 02:08:35;;;;;;;5.50;3.87;;;;;;;2.34;100.00;101108.30;1834392;77;21042;-76
2022/12/30 02:11:04;;;;;;;7.23;3.90;;;;;;;2.37;100.00;101105.91;1833072;77;20966;-75
2022/12/30 02:13:32;;;;;;;7.70;4.13;;;;;;;2.41;100.00;101106.12;1839181;77;21053;-77
2022/12/30 02:16:20;;;;;;;7.67;4.57;;;;;;;2.44;100.00;101104.13;1832557;78;21003;-75
2022/12/30 02:19:10;;;;;;;5.27;3.70;;;;;;;2.49;100.00;101106.98;1833796;77;21006;-74
2022/12/30 02:21:50;;;;;;;6.70;4.07;;;;;;;2.53;100.00;101100.02;1834582;77;21367;-75
2022/12/30 02:24:52;;;;;;;6.70;4.00;;;;;;;2.57;100.00;101100.23;1833205;77;21015;-75
2022/12/30 02:27:47;;;;;;;8.17;4.20;;;;;;;2.60;100.00;101112.07;1827139;78;21018;-76
2022/12/30 02:30:53;;;;;;;7.20;4.20;;;;;;;2.63;100.00;101105.67;1840044;78;20991;-74
2022/12/30 02:33:38;;;;;;;8.83;4.30;;;;;;;2.65;100.00;101115.30;1838276;77;21020;-76
2022/12/30 02:36:44;;;;;;;9.23;4.40;;;;;;;2.67;100.00;101113.87;1836915;77;21030;-75
2022/12/30 02:39:31;;;;;;;9.40;4.53;;;;;;;2.69;100.00;101105.77;1837243;77;21036;-74
2022/12/30 02:45:06;;;;;;;7.37;3.87;;;;;;;2.69;100.00;101107.09;1836831;78;21010;-75
2022/12/30 02:47:53;;;;;;;9.90;4.73;;;;;;;2.70;100.00;101108.83;1831147;77;20986;-74
2022/12/30 02:53:22;;;;;;;7.37;3.23;;;;;;;2.75;100.00;101123.61;1833014;78;21009;-75
2022/12/30 02:55:49;;;;;;;7.70;3.80;;;;;;;2.76;100.00;101116.00;1831939;78;21003;-75
2022/12/30 02:58:17;;;;;;;6.00;3.80;;;;;;;2.77;100.00;101124.86;1835066;77;21022;-75
2022/12/30 03:03:57;;;;;;;8.73;3.97;;;;;;;2.81;100.00;101114.36;1830548;77;21492;-74
2022/12/30 03:06:46;;;;;;;8.60;3.63;;;;;;;2.82;100.00;101114.27;1834720;78;20998;-74
2022/12/30 03:12:51;;;;;;;8.57;3.97;;;;;;;2.83;100.00;101117.79;1808132;78;21048;-75
2022/12/30 03:15:24;;;;;;;7.20;4.00;;;;;;;2.83;100.00;101109.78;1827996;77;20998;-75
2022/12/30 03:17:54;;;;;;;7.57;3.90;;;;;;;2.82;100.00;101120.09;1835219;77;21467;-74
2022/12/30 03:20:22;;;;;;;10.00;4.23;;;;;;;2.82;100.00;101113.42;1835824;77;20970;-74
2022/12/30 03:28:20;;;;;;;5.80;3.43;;;;;;;2.84;100.00;101123.04;1845862;78;20963;-75
2022/12/30 03:30:51;;;;;;;5.33;3.67;;;;;;;2.83;100.00;101117.34;1838521;78;20975;-74
2022/12/30 03:33:18;;;;;;;6.90;3.53;;;;;;;2.85;100.00;101126.11;1831361;78;20996;-74
2022/12/30 03:35:49;;;;;;;5.00;3.27;;;;;;;2.84;100.00;101112.84;1835412;77;20963;-74
2022/12/30 03:38:17;;;;;;;9.93;3.60;;;;;;;2.82;100.00;101114.27;1834450;78;21492;-74
2022/12/30 03:40:44;;;;;;;6.60;3.57;;;;;;;2.84;100.00;101115.52;1832597;77;21018;-75
2022/12/30 03:43:11;;;;;;;9.80;3.83;;;;;;;2.85;100.00;101114.55;1834395;77;21049;-75
2022/12/30 03:45:40;;;;;;;9.50;3.90;;;;;;;2.84;100.00;101107.50;1838216;77;21029;-76
2022/12/30 03:48:08;;;;;;;7.80;3.80;;;;;;;2.87;100.00;101122.47;1831882;77;21038;-74
2022/12/30 03:50:35;;;;;;;6.93;3.77;;;;;;;2.84;100.00;101108.34;1834857;77;21015;-74
2022/12/30 03:53:02;;;;;;;10.90;4.40;;;;;;;2.85;100.00;101113.20;1836508;77;21019;-74
2022/12/30 03:55:30;;;;;;;10.03;4.17;;;;;;;2.86;100.00;101106.92;1834993;77;20947;-75
2022/12/30 03:57:58;;;;;;;7.47;4.00;;;;;;;2.86;100.00;101109.59;1834531;77;21071;-76
2022/12/30 04:00:24;;;;;;;11.07;4.43;;;;;;;2.88;100.00;101110.35;1834396;77;20947;-74
2022/12/30 04:02:52;;;;;;;7.43;3.80;;;;;;;2.89;100.00;101113.42;1828422;77;21049;-74
2022/12/30 04:05:19;;;;;;;8.73;4.00;;;;;;;2.89;100.00;101113.42;1845390;78;21010;-76
2022/12/30 04:07:46;;;;;;;7.30;3.63;;;;;;;2.90;100.00;101111.59;1832337;78;21001;-75
2022/12/30 04:10:13;;;;;;;8.90;4.23;;;;;;;2.91;100.00;101114.17;1836294;78;21464;-74
2022/12/30 04:12:40;;;;;;;8.83;3.93;;;;;;;2.93;100.00;101120.77;1843782;77;20991;-75
2022/12/30 04:15:08;;;;;;;8.47;4.10;;;;;;;2.93;100.00;101119.42;1826621;77;21006;-75
2022/12/30 04:17:36;;;;;;;7.60;4.03;;;;;;;2.95;100.00;101118.85;1841977;78;21026;-75
2022/12/30 04:20:06;;;;;;;8.87;4.07;;;;;;;3.00;100.00;101126.11;1836947;78;20964;-73
2022/12/30 04:22:33;;;;;;;6.87;4.00;;;;;;;2.99;100.00;101119.91;1835344;77;20967;-74
2022/12/30 04:25:01;;;;;;;8.90;4.00;;;;;;;2.98;100.00;101124.02;1833875;77;20990;-75
2022/12/30 04:27:29;;;;;;;11.97;4.17;;;;;;;2.99;100.00;101119.91;1835676;77;21014;-74
2022/12/30 04:29:55;;;;;;;6.17;3.57;;;;;;;3.00;100.00;101124.77;1837322;77;21034;-75
2022/12/30 04:32:23;;;;;;;6.03;3.77;;;;;;;3.00;100.00;101126.95;1829361;78;20966;-75
2022/12/30 04:34:50;;;;;;;8.17;3.60;;;;;;;3.01;100.00;101131.36;1833871;78;21004;-74
2022/12/30 04:37:18;;;;;;;6.77;3.70;;;;;;;3.01;100.00;101135.37;1834475;78;21508;-75
2022/12/30 04:39:45;;;;;;;5.40;3.70;;;;;;;3.00;100.00;101128.30;1833150;77;20973;-75
2022/12/30 04:42:12;;;;;;;7.60;3.83;;;;;;;3.01;100.00;101128.69;1837219;77;21002;-73
2022/12/30 04:44:41;;;;;;;10.87;3.70;;;;;;;3.02;100.00;101135.73;1833969;77;21014;-74
2022/12/30 04:47:08;;;;;;;9.27;3.60;;;;;;;3.03;100.00;101136.61;1834394;78;21028;-74
2022/12/30 04:49:35;;;;;;;6.83;3.63;;;;;;;3.03;100.00;101140.13;1828715;78;21019;-75
2022/12/30 04:52:04;;;;;;;6.40;4.00;;;;;;;3.03;100.00;101131.27;1831512;77;21041;-75
2022/12/30 04:54:32;;;;;;;6.83;3.80;;;;;;;3.03;100.00;101131.27;1826758;78;21017;-75
2022/12/30 04:56:59;;;;;;;11.77;4.17;;;;;;;3.01;100.00;101135.37;1835816;77;20995;-74
2022/12/30 04:59:26;;;;;;;8.53;4.23;;;;;;;3.03;100.00;101132.60;1828280;77;20985;-75
2022/12/30 05:01:53;;;;;;;6.43;3.77;;;;;;;3.04;100.00;101132.97;1831493;77;21018;-74
2022/12/30 05:04:20;;;;;;;8.10;3.67;;;;;;;3.03;100.00;101128.59;1833868;78;21538;-74
2022/12/30 05:06:47;;;;;;;10.07;4.37;;;;;;;3.04;100.00;101135.15;1832591;77;21002;-75
2022/12/30 05:09:14;;;;;;;11.47;4.13;;;;;;;3.04;100.00;101131.63;1829730;77;21051;-75
2022/12/30 05:11:41;;;;;;;7.07;3.53;;;;;;;3.08;100.00;101134.97;1831169;78;21034;-73
2022/12/30 05:14:09;;;;;;;8.23;4.27;;;;;;;3.08;100.00;101133.18;1836229;78;21023;-75
2022/12/30 05:16:38;;;;;;;9.07;3.90;;;;;;;3.08;100.00;101129.63;1838750;77;21015;-75
2022/12/30 05:19:05;;;;;;;7.20;3.57;;;;;;;3.08;100.00;101130.96;1838305;77;21498;-74
2022/12/30 05:21:32;;;;;;;7.90;4.23;;;;;;;3.08;100.00;101139.86;1837323;77;20959;-74
2022/12/30 05:26:45;;;;;;;9.33;4.60;;;;;;;3.08;100.00;101128.29;1834867;78;21014;-74
2022/12/30 05:29:12;;;;;;;8.63;4.30;;;;;;;3.04;100.00;101125.80;1836601;77;21015;-75
2022/12/30 05:31:39;;;;;;;10.20;4.73;;;;;;;3.04;100.00;101123.12;1835218;77;21018;-76
2022/12/30 05:34:06;;;;;;;8.40;4.00;;;;;;;3.01;100.00;101128.69;1838445;77;21449;-75
2022/12/30 05:36:34;;;;;;;10.27;4.47;;;;;;;3.00;100.00;101126.95;1832639;78;21029;-74
2022/12/30 05:39:02;;;;;;;12.20;4.60;;;;;;;2.95;100.00;101125.05;1834157;78;21492;-75
2022/12/30 05:41:29;;;;;;;10.03;3.93;;;;;;;2.93;100.00;101130.11;1836049;77;20983;-75
2022/12/30 05:43:57;;;;;;;7.17;3.80;;;;;;;2.91;100.00;101141.38;1837083;77;21066;-75
2022/12/30 05:46:24;;;;;;;8.73;3.93;;;;;;;2.92;100.00;101136.40;1839421;77;21009;-75
2022/12/30 05:52:55;;;;;;;6.67;3.70;;;;;;;2.90;100.00;101130.30;1831521;77;21054;-75
2022/12/30 05:55:22;;;;;;;6.63;3.63;;;;;;;2.90;100.00;101120.95;1839873;78;20980;-75
2022/12/30 05:57:49;;;;;;;6.37;3.70;;;;;;;2.90;100.00;101122.28;1832321;77;20986;-75
2022/12/30 06:00:16;;;;;;;6.77;3.90;;;;;;;2.88;100.00;101125.05;1835414;77;20971;-74
2022/12/30 06:02:44;;;;;;;11.13;4.50;;;;;;;2.87;100.00;101119.34;1832169;77;21538;-75
2022/12/30 06:05:12;;;;;;;14.27;6.87;;;;;;;2.85;100.00;101126.56;1828765;77;21516;-74
2022/12/30 06:07:39;;;;;;;12.03;5.77;;;;;;;2.84;100.00;101112.84;1836327;78;21050;-74
2022/12/30 06:10:07;;;;;;;9.90;4.90;;;;;;;2.83;100.00;101124.02;1832967;77;21009;-75
2022/12/30 06:12:35;;;;;;;10.87;4.80;;;;;;;2.81;100.00;101119.22;1829168;78;21038;-75
2022/12/30 06:15:03;;;;;;;10.70;4.73;;;;;;;2.81;100.00;101120.55;1838264;78;21046;-75
2022/12/30 06:17:31;;;;;;;13.33;5.20;;;;;;;2.83;100.00;101130.69;1829474;78;21586;-75
2022/12/30 06:19:58;;;;;;;12.37;5.40;;;;;;;2.85;100.00;101124.77;1835170;78;21085;-75
2022/12/30 06:22:25;;;;;;;13.10;5.00;;;;;;;2.88;100.00;101127.72;1830193;77;21507;-74
2022/12/30 06:24:51;;;;;;;12.47;5.50;;;;;;;2.91;100.00;101128.87;1833258;77;21050;-75
2022/12/30 06:27:19;;;;;;;9.07;4.50;;;;;;;2.93;100.00;101140.31;1816541;78;21046;-75
2022/12/30 06:29:47;;;;;;;8.53;4.23;;;;;;;2.95;100.00;101138.41;1800668;79;21054;-75
2022/12/30 06:32:16;;;;;;;10.43;4.40;;;;;;;2.98;100.00;101140.89;1789562;79;21015;-74
2022/12/30 06:34:43;;;;;;;9.83;4.40;;;;;;;3.02;100.00;101139.73;1796279;79;21044;-75
2022/12/30 06:40:50;;;;;;;7.10;3.90;;;;;;;3.10;100.00;101144.63;1777021;78;21004;-74
2022/12/30 06:43:17;;;;;;;7.57;3.83;;;;;;;3.13;100.00;101143.56;1810884;78;21119;-75
2022/12/30 06:45:45;;;;;;;7.47;4.20;;;;;;;3.17;100.00;101159.32;1828451;78;20997;-75
2022/12/30 06:48:12;;;;;;;9.97;4.17;;;;;;;3.20;100.00;101153.77;1834559;78;21030;-74
2022/12/30 06:50:39;;;;;;;6.90;4.33;;;;;;;3.24;100.00;101158.47;1837887;78;21007;-76
2022/12/30 06:53:06;;;;;;;8.93;3.90;;;;;;;3.30;100.00;101160.73;1798219;78;21001;-74
2022/12/30 06:55:33;;;;;;;9.23;4.27;;;;;;;3.31;100.00;101151.78;1788046;79;21490;-74
2022/12/30 06:58:01;;;;;;;10.90;4.17;;;;;;;3.33;100.00;101157.00;1798997;78;21005;-75
2022/12/30 07:00:29;;;;;;;11.43;4.53;;;;;;;3.39;100.00;101160.15;1771847;79;21000;-74
2022/12/30 07:02:57;;;;;;;9.47;4.43;;;;;;;3.44;100.00;101147.84;1793506;79;21511;-77
2022/12/30 07:05:24;;;;;;;10.87;4.90;;;;;;;3.50;100.00;101150.10;1782911;78;20962;-75
2022/12/30 07:07:51;;;;;;;14.17;6.07;;;;;;;3.55;100.00;101153.83;1755745;80;21014;-75
2022/12/30 07:10:18;;;;;;;18.47;7.10;;;;;;;3.60;100.00;101159.75;1818806;78;21212;-73
2022/12/30 07:12:46;;;;;;;14.30;6.43;;;;;;;3.64;100.00;101146.55;1807948;78;21005;-75
2022/12/30 07:15:13;;;;;;;12.43;5.63;;;;;;;3.70;100.00;101154.19;1788171;78;21029;-78
2022/12/30 07:17:40;;;;;;;12.60;5.50;;;;;;;3.74;100.00;101152.17;1777409;79;21060;-75
2022/12/30 07:20:11;;;;;;;13.57;5.33;;;;;;;3.79;100.00;101156.75;1810943;78;21114;-73
2022/12/30 07:22:39;;;;;;;13.27;6.00;;;;;;;3.85;100.00;101152.81;1792751;78;21308;-76
2022/12/30 07:25:07;;;;;;;11.97;5.27;;;;;;;3.89;100.00;101149.81;1805937;79;21661;-73
2022/12/30 07:27:33;;;;;;;15.13;5.70;;;;;;;3.93;100.00;101150.47;1802569;78;21064;-74
2022/12/30 07:30:00;;;;;;;21.70;8.37;;;;;;;3.96;100.00;101155.63;1773095;78;20998;-76
2022/12/30 07:32:28;;;;;;;14.47;6.47;;;;;;;3.99;100.00;101154.09;1786723;78;21034;-76
2022/12/30 07:34:55;;;;;;;16.20;6.40;;;;;;;4.06;100.00;101151.87;1793253;78;21067;-75
2022/12/30 07:37:47;;;;;;;13.67;6.00;;;;;;;4.13;100.00;101153.19;1812502;78;21027;-76
2022/12/30 07:40:15;;;;;;;11.77;5.83;;;;;;;4.16;100.00;101144.47;1799221;79;21012;-75
2022/12/30 07:42:42;;;;;;;18.07;7.40;;;;;;;4.22;100.00;101149.03;1802818;78;21062;-76
2022/12/30 07:45:09;;;;;;;68.53;29.53;;;;;;;4.25;100.00;101150.14;1814822;78;20991;-75
2022/12/30 07:47:37;;;;;;;12.00;6.30;;;;;;;4.30;100.00;101146.67;1797240;78;21023;-75
2022/12/30 07:53:59;;;;;;;10.83;4.50;;;;;;;4.46;100.00;101153.19;1778109;80;21038;-76
2022/12/30 07:56:28;;;;;;;7.40;4.93;;;;;;;4.59;100.00;101142.52;1765745;80;21504;-75
2022/12/30 07:58:55;;;;;;;11.70;5.00;;;;;;;4.69;100.00;101154.30;1766555;80;21031;-76
2022/12/30 08:01:22;;;;;;;7.67;4.30;;;;;;;4.75;100.00;101163.27;1766354;80;20999;-74
2022/12/30 08:03:49;;;;;;;6.87;3.93;;;;;;;4.81;100.00;101155.28;1758362;80;20999;-75
2022/12/30 08:06:17;;;;;;;10.27;4.60;;;;;;;4.86;100.00;101155.82;1784538;80;21037;-75
2022/12/30 08:08:48;;;;;;;11.07;5.03;;;;;;;4.93;100.00;101157.11;1754660;80;21083;-76
2022/12/30 08:11:16;;;;;;;11.13;5.50;;;;;;;4.99;100.00;101153.13;1755676;80;21022;-75
2022/12/30 08:13:43;;;;;;;8.57;4.03;;;;;;;5.01;100.00;101158.78;1753186;80;20984;-74
2022/12/30 08:16:28;;;;;;;13.23;6.63;;;;;;;5.04;100.00;101157.20;1749700;79;21038;-76
2022/12/30 08:19:02;;;;;;;12.77;7.60;;;;;;;5.04;100.00;101143.80;1794053;78;21510;-75
2022/12/30 08:21:30;;;;;;;12.87;6.63;;;;;;;5.05;100.00;101140.66;1831451;78;20982;-76
2022/12/30 08:23:57;;;;;;;15.33;6.87;;;;;;;5.07;100.00;101141.39;1831661;77;20970;-77
2022/12/30 08:26:24;;;;;;;10.23;4.50;;;;;;;5.09;100.00;101141.65;1831070;77;21041;-76
2022/12/30 08:28:51;;;;;;;11.17;5.50;;;;;;;5.11;100.00;101131.67;1802133;78;21622;-76
2022/12/30 08:31:22;;;;;;;12.37;5.60;;;;;;;5.13;100.00;101141.83;1821009;78;21073;-75
2022/12/30 08:33:49;;;;;;;6.57;4.20;;;;;;;5.13;100.00;101136.47;1832275;77;21025;-76
2022/12/30 08:36:20;;;;;;;15.73;7.27;;;;;;;5.16;100.00;101139.89;1839236;77;21018;-76
2022/12/30 08:38:51;;;;;;;27.80;14.50;;;;;;;5.18;100.00;101135.27;1827787;78;21042;-75
2022/12/30 08:41:24;;;;;;;36.60;19.37;;;;;;;5.19;100.00;101132.94;1783063;80;21080;-76
2022/12/30 08:43:56;;;;;;;27.47;14.07;;;;;;;5.22;100.00;101135.41;1829940;77;21010;-70
2022/12/30 08:46:23;;;;;;;43.57;20.63;;;;;;;5.21;100.00;101133.22;1821252;78;21505;-70
2022/12/30 08:48:50;;;;;;;71.27;33.50;;;;;;;5.27;100.00;101138.63;1742903;80;21555;-70
2022/12/30 08:51:17;;;;;;;58.40;28.60;;;;;;;5.29;100.00;101132.20;1741178;81;21042;-70
2022/12/30 08:53:44;;;;;;;44.63;21.10;;;;;;;5.31;100.00;101120.00;1749573;80;21083;-71
2022/12/30 08:56:15;;;;;;;23.50;10.47;;;;;;;5.32;100.00;101125.25;1734777;81;21514;-69
2022/12/30 08:58:44;;;;;;;33.13;14.53;;;;;;;5.28;100.00;101117.06;1735391;81;21051;-71
2022/12/30 09:01:18;;;;;;;37.40;16.50;;;;;;;5.21;100.00;101121.66;1716053;81;21019;-70
2022/12/30 09:03:48;;;;;;;67.43;31.03;;;;;;;5.19;100.00;101124.44;1731899;81;21591;-70
2022/12/30 09:06:40;;;;;;;40.60;18.63;;;;;;;5.19;100.00;101111.03;1740653;80;21403;-69
2022/12/30 09:09:12;;;;;;;24.13;12.20;;;;;;;5.16;100.00;101109.05;1725418;81;21082;-70
2022/12/30 09:11:40;;;;;;;33.87;17.03;;;;;;;5.11;100.00;101111.56;1722115;81;21551;-70
2022/12/30 09:14:10;;;;;;;26.90;12.70;;;;;;;5.10;100.00;101114.38;1743589;81;22280;-70
2022/12/30 09:16:37;;;;;;;16.80;7.40;;;;;;;5.08;100.00;101113.14;1725889;80;20983;-68
2022/12/30 09:19:04;;;;;;;15.37;6.33;;;;;;;5.06;100.00;101106.16;1729929;82;21521;-69
2022/12/30 09:21:31;;;;;;;8.73;5.20;;;;;;;5.04;100.00;101104.92;1810169;78;20963;-70
2022/12/30 09:23:58;;;;;;;10.00;5.83;;;;;;;4.98;100.00;101096.48;1823344;77;20983;-69
2022/12/30 09:26:27;;;;;;;9.27;4.83;;;;;;;4.98;100.00;101094.66;1818705;78;21500;-68
2022/12/30 09:28:54;;;;;;;12.13;4.83;;;;;;;4.95;100.00;101098.39;1787318;78;21527;-67
2022/12/30 09:31:21;;;;;;;7.33;4.33;;;;;;;4.91;100.00;101091.55;1749179;79;21041;-67
2022/12/30 09:33:48;;;;;;;10.43;5.27;;;;;;;4.86;100.00;101091.01;1762709;79;21076;-68
2022/12/30 09:36:15;;;;;;;10.20;5.07;;;;;;;4.83;100.00;101099.25;1782967;78;20946;-67
2022/12/30 09:49:40;;;;;;;10.60;4.65;;;;;;;4.76;100.00;101084.58;1824860;77;21145;-67
2022/12/30 09:52:15;;;;;;;12.80;5.77;;;;;;;4.77;100.00;101075.59;1787116;77;21023;-67
2022/12/30 09:54:53;;;;;;;10.95;5.35;;;;;;;4.79;100.00;101077.67;1815171;78;21128;-66
2022/12/30 09:57:30;;;;;;;13.17;5.60;;;;;;;4.79;100.00;101067.45;1779131;78;21022;-68
2022/12/30 10:03:46;;;;;;;11.33;4.77;;;;;;;4.75;100.00;101071.67;1813992;78;21039;-67
2022/12/30 10:06:42;;;;;;;10.67;5.47;;;;;;;4.75;100.00;101060.11;1786312;78;21045;-68
2022/12/30 10:09:38;;;;;;;12.80;4.97;;;;;;;4.74;100.00;101062.40;1756682;78;20959;-68
2022/12/30 10:12:15;;;;;;;15.10;6.53;;;;;;;4.75;100.00;101056.09;1811023;78;21090;-66
2022/12/30 10:18:24;;;;;;;15.40;7.90;;;;;;;4.80;100.00;101060.64;1808786;78;20996;-66
2022/12/30 10:21:09;;;;;;;17.50;8.07;;;;;;;4.83;100.00;101062.23;1815903;78;21498;-67
2022/12/30 10:24:21;;;;;;;19.67;8.53;;;;;;;4.86;100.00;101052.15;1795730;78;21698;-67
2022/12/30 10:26:50;;;;;;;10.40;5.57;;;;;;;4.86;100.00;101053.48;1806306;78;21512;-68
2022/12/30 10:29:30;;;;;;;16.70;8.10;;;;;;;4.87;100.00;101054.34;1822986;78;21515;-68
2022/12/30 10:35:53;;;;;;;16.73;8.37;;;;;;;4.91;100.00;101051.34;1770792;80;21336;-67
2022/12/30 10:38:25;;;;;;;15.83;8.20;;;;;;;4.93;100.00;101044.05;1733943;80;21008;-68
2022/12/30 10:41:25;;;;;;;31.60;17.45;;;;;;;4.94;100.00;101051.13;1748025;80;20964;-68
2022/12/30 10:44:07;;;;;;;20.67;9.63;;;;;;;4.95;100.00;101049.30;1740036;80;21015;-69
2022/12/30 10:46:50;;;;;;;19.10;7.47;;;;;;;4.93;100.00;101037.34;1738660;80;21003;-67
2022/12/30 10:49:35;;;;;;;28.43;13.70;;;;;;;4.95;100.00;101040.77;1733941;80;21025;-67
2022/12/30 10:52:04;;;;;;;16.67;8.63;;;;;;;5.00;100.00;101039.59;1758822;80;21029;-68
2022/12/30 10:54:35;;;;;;;20.53;10.70;;;;;;;5.02;100.00;101035.82;1819645;78;21560;-67
2022/12/30 10:57:03;;;;;;;19.80;9.10;;;;;;;5.04;100.00;101041.92;1820279;78;21448;-67
2022/12/30 10:59:34;;;;;;;13.47;7.03;;;;;;;5.06;100.00;101041.33;1790591;77;21021;-67
2022/12/30 11:02:22;;;;;;;13.77;5.70;;;;;;;5.04;100.00;101037.91;1813142;78;20997;-67
2022/12/30 11:04:56;;;;;;;13.27;5.57;;;;;;;5.05;100.00;101032.92;1791662;78;20999;-67
2022/12/30 11:14:42;;;;;;;8.73;4.40;;;;;;;5.08;100.00;101034.52;1795958;77;21007;-68
2022/12/30 11:16:41;;;;;;;9.97;4.67;;;;;;;5.09;100.00;101022.34;1804414;78;20990;-70
2022/12/30 11:19:29;;;;;;;8.20;4.37;;;;;;;5.13;100.00;101024.31;1811754;77;21002;-68
2022/12/30 11:25:33;;;;;;;10.27;4.37;;;;;;;5.14;100.00;101018.84;1767381;79;21014;-68
2022/12/30 11:28:42;;;;;;;10.27;4.80;;;;;;;5.16;100.00;101021.42;1752362;78;20981;-70
2022/12/30 11:31:11;;;;;;;9.03;4.10;;;;;;;5.19;100.00;101023.00;1760663;79;21065;-69
2022/12/30 11:33:55;;;;;;;7.30;4.10;;;;;;;5.20;100.00;101014.86;1770100;78;21086;-68
2022/12/30 11:36:31;;;;;;;10.77;5.20;;;;;;;5.22;100.00;101010.23;1719488;81;21131;-68
2022/12/30 11:39:06;;;;;;;8.90;4.40;;;;;;;5.25;100.00;101012.70;1733925;81;21031;-68
2022/12/30 11:41:36;;;;;;;13.03;4.67;;;;;;;5.27;100.00;101016.61;1735715;81;21057;-67
2022/12/30 11:44:09;;;;;;;8.27;5.30;;;;;;;5.27;100.00;101013.44;1733676;80;21176;-69
2022/12/30 11:46:50;;;;;;;6.50;4.30;;;;;;;5.31;100.00;101006.89;1751947;81;21045;-68
2022/12/30 11:49:39;;;;;;;10.50;5.30;;;;;;;5.33;100.00;101010.31;1738708;80;21037;-68
2022/12/30 11:52:13;;;;;;;8.63;4.53;;;;;;;5.35;100.00;101008.87;1715802;80;21055;-70
2022/12/30 11:54:54;;;;;;;6.73;4.27;;;;;;;5.35;100.00;101008.87;1736083;80;20960;-68
2022/12/30 11:57:34;;;;;;;13.80;5.93;;;;;;;5.39;100.00;101004.13;1744931;81;21050;-68
2022/12/30 12:00:09;;;;;;;11.03;5.03;;;;;;;5.38;100.00;101004.59;1822515;77;21512;-68
2022/12/30 12:02:50;;;;;;;10.30;5.17;;;;;;;5.39;100.00;101006.81;1727167;80;21037;-67
2022/12/30 12:05:39;;;;;;;10.33;4.30;;;;;;;5.40;100.00;101009.84;1736746;80;21035;-67
2022/12/30 12:08:23;;;;;;;10.27;4.57;;;;;;;5.41;100.00;101012.91;1811979;78;20971;-66
2022/12/30 12:11:00;;;;;;;9.47;4.90;;;;;;;5.42;100.00;101008.78;1752052;79;21055;-68
2022/12/30 12:17:33;;;;;;;10.20;4.47;;;;;;;5.45;100.00;101014.39;1783428;77;21077;-68
2022/12/30 12:20:32;;;;;;;10.53;5.37;;;;;;;5.45;100.00;101005.00;1762513;80;21071;-68
2022/12/30 12:23:28;;;;;;;10.67;4.77;;;;;;;5.46;100.00;101000.86;1739997;81;21074;-68
2022/12/30 12:26:06;;;;;;;12.37;5.57;;;;;;;5.48;100.00;101006.12;1803949;78;20975;-67
2022/12/30 12:28:34;;;;;;;14.17;6.50;;;;;;;5.49;100.00;101000.64;1787716;77;20975;-67
2022/12/30 12:31:32;;;;;;;14.20;6.60;;;;;;;5.50;100.00;101002.34;1816680;78;21030;-68
2022/12/30 12:34:19;;;;;;;15.80;7.97;;;;;;;5.50;100.00;100996.97;1822058;78;21029;-66
2022/12/30 12:37:13;;;;;;;14.57;6.30;;;;;;;5.54;100.00;100996.25;1824264;78;21056;-69
2022/12/30 12:40:23;;;;;;;14.30;5.80;;;;;;;5.56;100.00;100994.80;1811036;78;21033;-69
2022/12/30 12:43:22;;;;;;;19.63;7.63;;;;;;;5.59;100.00;100998.61;1788719;78;21088;-68
2022/12/30 12:45:57;;;;;;;16.80;8.03;;;;;;;5.60;100.00;100997.65;1774611;78;21046;-69
2022/12/30 12:48:43;;;;;;;15.60;6.87;;;;;;;5.64;100.00;100995.09;1797186;77;20977;-69
2022/12/30 12:51:38;;;;;;;22.73;7.97;;;;;;;5.68;100.00;101000.13;1829162;78;20987;-70
2022/12/30 12:54:20;;;;;;;15.97;7.73;;;;;;;5.68;100.00;100996.09;1820533;78;21035;-69
2022/12/30 12:57:14;;;;;;;13.43;6.53;;;;;;;5.69;100.00;100989.74;1811475;78;21002;-69
2022/12/30 13:00:07;;;;;;;14.93;6.50;;;;;;;5.71;100.00;100989.13;1798636;78;21057;-69
2022/12/30 13:03:16;;;;;;;12.83;5.93;;;;;;;5.73;100.00;100992.20;1812197;78;21036;-70
2022/12/30 13:06:16;;;;;;;12.27;5.50;;;;;;;5.76;100.00;100991.98;1796962;78;21038;-69
2022/12/30 13:13:08;;;;;;;14.57;5.70;;;;;;;5.79;100.00;100983.20;1800429;78;21102;-70
2022/12/30 13:15:45;;;;;;;15.23;5.30;;;;;;;5.80;100.00;100986.23;1800073;78;21002;-68
2022/12/30 13:18:21;;;;;;;15.77;7.13;;;;;;;5.82;100.00;100988.81;1789001;78;21046;-68
2022/12/30 13:21:06;;;;;;;7.83;4.97;;;;;;;5.83;100.00;100987.85;1771464;80;21085;-69
2022/12/30 13:23:38;;;;;;;13.13;5.87;;;;;;;5.83;100.00;100990.53;1756199;81;21105;-69
2022/12/30 13:26:12;;;;;;;15.43;5.27;;;;;;;5.83;100.00;100996.75;1725013;81;21579;-69
2022/12/30 13:28:39;;;;;;;12.33;5.97;;;;;;;5.83;100.00;100993.22;1755475;80;21046;-69
2022/12/30 13:31:35;;;;;;;13.80;7.27;;;;;;;5.84;100.00;100994.45;1733872;81;21046;-69
2022/12/30 13:34:27;;;;;;;9.90;5.13;;;;;;;5.84;100.00;100995.79;1769691;80;21010;-69